sensor_id;sensor_type;location;lat;lon;timestamp;pressure;altitude;pressure_sealevel;temperature;humidity
40592;BME280;26301;42.832;23.918;2023-02-23T00:01:36;93048.13;;;1.55;100.00
40592;BME280;26301;42.832;23.918;2023-02-23T00:04:02;93009.16;;;1.33;100.00
40592;BME280;26301;42.832;23.918;2023-02-23T00:06:30;93032.94;;;1.47;100.00
40592;BME280;26301;42.832;23.918;2023-02-23T00:08:56;93045.75;;;1.54;100.00
40592;BME280;26301;42.832;23.918;2023-02-23T00:11:26;93043.63;;;1.57;100.00
40592;BME280;26301;42.832;23.918;2023-02-23T00:13:52;93056.78;;;1.61;100.00
40592;BME280;26301;42.832;23.918;2023-02-23T00:16:22;93059.59;;;1.66;100.00
40592;BME280;26301;42.832;23.918;2023-02-23T00:18:58;93053.47;;;1.60;100.00
40592;BME280;26301;42.832;23.918;2023-02-23T00:21:29;93041.50;;;1.61;100.00
40592;BME280;26301;42.832;23.918;2023-02-23T00:24:05;93020.78;;;1.43;100.00
40592;BME280;26301;42.832;23.918;2023-02-23T00:26:32;93046.00;;;1.59;100.00
40592;BME280;26301;42.832;23.918;2023-02-23T00:29:04;93023.69;;;1.40;100.00
40592;BME280;26301;42.832;23.918;2023-02-23T00:31:30;93030.84;;;1.51;100.00
40592;BME280;26301;42.832;23.918;2023-02-23T00:33:58;93045.81;;;1.60;100.00
40592;BME280;26301;42.832;23.918;2023-02-23T00:36:27;93036.38;;;1.54;100.00
40592;BME280;26301;42.832;23.918;2023-02-23T00:38:55;93040.84;;;1.52;100.00
40592;BME280;26301;42.832;23.918;2023-02-23T00:41:22;93026.19;;;1.54;100.00
40592;BME280;26301;42.832;23.918;2023-02-23T00:43:49;93043.63;;;1.57;100.00
40592;BME280;26301;42.832;23.918;2023-02-23T00:46:20;93037.56;;;1.58;100.00
40592;BME280;26301;42.832;23.918;2023-02-23T00:48:48;93039.75;;;1.62;100.00
40592;BME280;26301;42.832;23.918;2023-02-23T00:51:14;93031.69;;;1.58;100.00
40592;BME280;26301;42.832;23.918;2023-02-23T00:53:41;93032.09;;;1.62;100.00
40592;BME280;26301;42.832;23.918;2023-02-23T00:56:08;93009.09;;;1.48;100.00
40592;BME280;26301;42.832;23.918;2023-02-23T00:58:34;93034.53;;;1.70;100.00
40592;BME280;26301;42.832;23.918;2023-02-23T01:01:00;93031.25;;;1.76;100.00
40592;BME280;26301;42.832;23.918;2023-02-23T01:03:28;93016.09;;;1.68;100.00
40592;BME280;26301;42.832;23.918;2023-02-23T01:05:58;93004.50;;;1.65;100.00
40592;BME280;26301;42.832;23.918;2023-02-23T01:08:24;93014.34;;;1.68;100.00
40592;BME280;26301;42.832;23.918;2023-02-23T01:10:50;93009.06;;;1.70;100.00
40592;BME280;26301;42.832;23.918;2023-02-23T01:13:19;93030.53;;;1.82;100.00
40592;BME280;26301;42.832;23.918;2023-02-23T01:15:46;93022.41;;;1.72;100.00
40592;BME280;26301;42.832;23.918;2023-02-23T01:18:13;93002.41;;;1.69;100.00
40592;BME280;26301;42.832;23.918;2023-02-23T01:20:39;93018.16;;;1.79;99.71
40592;BME280;26301;42.832;23.918;2023-02-23T01:23:07;93022.47;;;1.78;100.00
40592;BME280;26301;42.832;23.918;2023-02-23T01:25:33;93016.50;;;1.71;99.69
40592;BME280;26301;42.832;23.918;2023-02-23T01:28:00;93013.50;;;1.61;100.00
40592;BME280;26301;42.832;23.918;2023-02-23T01:30:26;93001.09;;;1.51;100.00
40592;BME280;26301;42.832;23.918;2023-02-23T01:32:52;93015.03;;;1.55;100.00
40592;BME280;26301;42.832;23.918;2023-02-23T01:35:17;93013.69;;;1.59;100.00
40592;BME280;26301;42.832;23.918;2023-02-23T01:37:43;93007.13;;;1.50;100.00
40592;BME280;26301;42.832;23.918;2023-02-23T01:40:16;92994.59;;;1.49;100.00
40592;BME280;26301;42.832;23.918;2023-02-23T01:42:54;92992.69;;;1.51;100.00
40592;BME280;26301;42.832;23.918;2023-02-23T01:45:23;93001.50;;;1.55;100.00
40592;BME280;26301;42.832;23.918;2023-02-23T01:47:55;93016.47;;;1.65;100.00
40592;BME280;26301;42.832;23.918;2023-02-23T01:50:24;93008.59;;;1.59;100.00
40592;BME280;26301;42.832;23.918;2023-02-23T01:52:51;92991.28;;;1.48;100.00
40592;BME280;26301;42.832;23.918;2023-02-23T01:55:20;93007.22;;;1.57;100.00
40592;BME280;26301;42.832;23.918;2023-02-23T01:57:53;93000.34;;;1.57;100.00
40592;BME280;26301;42.832;23.918;2023-02-23T02:00:20;93007.22;;;1.57;100.00
40592;BME280;26301;42.832;23.918;2023-02-23T02:02:50;92998.59;;;1.58;100.00
40592;BME280;26301;42.832;23.918;2023-02-23T02:05:16;93005.41;;;1.51;100.00
40592;BME280;26301;42.832;23.918;2023-02-23T02:07:46;93005.69;;;1.41;100.00
40592;BME280;26301;42.832;23.918;2023-02-23T02:10:12;92986.38;;;1.25;100.00
40592;BME280;26301;42.832;23.918;2023-02-23T02:12:40;93008.38;;;1.33;100.00
40592;BME280;26301;42.832;23.918;2023-02-23T02:15:09;93002.84;;;1.29;100.00
40592;BME280;26301;42.832;23.918;2023-02-23T02:23:24;93005.31;;;1.23;100.00
40592;BME280;26301;42.832;23.918;2023-02-23T02:43:05;93005.22;;;1.09;100.00
40592;BME280;26301;42.832;23.918;2023-02-23T02:46:05;93016.81;;;0.97;100.00
40592;BME280;26301;42.832;23.918;2023-02-23T02:52:10;93004.28;;;0.96;100.00
40592;BME280;26301;42.832;23.918;2023-02-23T02:54:43;92989.06;;;0.81;100.00
40592;BME280;26301;42.832;23.918;2023-02-23T02:57:12;93010.28;;;0.88;100.00
40592;BME280;26301;42.832;23.918;2023-02-23T02:59:43;93007.53;;;0.89;100.00
40592;BME280;26301;42.832;23.918;2023-02-23T03:02:28;93000.19;;;0.80;100.00
40592;BME280;26301;42.832;23.918;2023-02-23T03:05:17;93019.75;;;0.79;100.00
40592;BME280;26301;42.832;23.918;2023-02-23T03:11:04;93020.81;;;0.70;100.00
40592;BME280;26301;42.832;23.918;2023-02-23T03:17:23;93021.09;;;0.60;100.00
40592;BME280;26301;42.832;23.918;2023-02-23T03:23:01;93027.84;;;0.53;100.00
40592;BME280;26301;42.832;23.918;2023-02-23T03:26:08;93005.97;;;0.37;100.00
40592;BME280;26301;42.832;23.918;2023-02-23T03:29:03;93024.69;;;0.51;100.00
40592;BME280;26301;42.832;23.918;2023-02-23T03:32:09;93028.19;;;0.50;100.00
40592;BME280;26301;42.832;23.918;2023-02-23T03:35:08;93026.09;;;0.54;100.00
40592;BME280;26301;42.832;23.918;2023-02-23T03:41:17;93016.81;;;0.46;100.00
40592;BME280;26301;42.832;23.918;2023-02-23T03:44:09;93004.28;;;0.44;100.00
40592;BME280;26301;42.832;23.918;2023-02-23T03:46:56;93015.75;;;0.55;100.00
40592;BME280;26301;42.832;23.918;2023-02-23T03:49:42;92992.13;;;0.40;100.00
40592;BME280;26301;42.832;23.918;2023-02-23T03:52:35;93016.72;;;0.54;100.00
40592;BME280;26301;42.832;23.918;2023-02-23T03:55:23;93010.25;;;0.52;100.00
40592;BME280;26301;42.832;23.918;2023-02-23T03:58:12;92999.53;;;0.41;100.00
40592;BME280;26301;42.832;23.918;2023-02-23T04:01:01;93016.38;;;0.57;100.00
40592;BME280;26301;42.832;23.918;2023-02-23T04:03:47;93018.56;;;0.60;100.00
40592;BME280;26301;42.832;23.918;2023-02-23T04:06:36;93020.13;;;0.61;100.00
40592;BME280;26301;42.832;23.918;2023-02-23T04:09:22;93009.97;;;0.61;100.00
40592;BME280;26301;42.832;23.918;2023-02-23T04:12:19;93027.47;;;0.71;100.00
40592;BME280;26301;42.832;23.918;2023-02-23T04:15:15;93026.34;;;0.74;100.00
40592;BME280;26301;42.832;23.918;2023-02-23T04:17:44;93018.81;;;0.65;100.00
40592;BME280;26301;42.832;23.918;2023-02-23T04:20:11;93025.84;;;0.63;100.00
40592;BME280;26301;42.832;23.918;2023-02-23T04:22:38;93030.38;;;0.68;100.00
40592;BME280;26301;42.832;23.918;2023-02-23T04:25:03;93022.31;;;0.64;100.00
40592;BME280;26301;42.832;23.918;2023-02-23T04:27:30;93018.09;;;0.57;100.00
40592;BME280;26301;42.832;23.918;2023-02-23T04:29:56;93013.66;;;0.59;100.00
40592;BME280;26301;42.832;23.918;2023-02-23T04:32:22;93025.72;;;0.72;100.00
40592;BME280;26301;42.832;23.918;2023-02-23T04:34:48;93042.63;;;0.79;100.00
40592;BME280;26301;42.832;23.918;2023-02-23T04:37:14;93041.41;;;0.75;100.00
40592;BME280;26301;42.832;23.918;2023-02-23T04:39:40;93045.09;;;0.73;100.00
40592;BME280;26301;42.832;23.918;2023-02-23T04:42:12;93051.69;;;0.67;100.00
40592;BME280;26301;42.832;23.918;2023-02-23T04:44:38;93044.56;;;0.62;100.00
40592;BME280;26301;42.832;23.918;2023-02-23T04:47:03;93052.63;;;0.66;100.00
40592;BME280;26301;42.832;23.918;2023-02-23T04:49:29;93028.56;;;0.47;100.00
40592;BME280;26301;42.832;23.918;2023-02-23T04:51:55;93037.75;;;0.48;100.00
40592;BME280;26301;42.832;23.918;2023-02-23T04:54:20;93057.56;;;0.53;100.00
40592;BME280;26301;42.832;23.918;2023-02-23T04:56:46;93062.81;;;0.51;100.00
40592;BME280;26301;42.832;23.918;2023-02-23T04:59:12;93064.75;;;0.49;100.00
40592;BME280;26301;42.832;23.918;2023-02-23T05:01:37;93038.78;;;0.39;100.00
40592;BME280;26301;42.832;23.918;2023-02-23T05:04:03;93070.53;;;0.58;100.00
40592;BME280;26301;42.832;23.918;2023-02-23T05:06:29;93049.06;;;0.45;100.00
40592;BME280;26301;42.832;23.918;2023-02-23T05:08:55;93080.59;;;0.66;100.00
40592;BME280;26301;42.832;23.918;2023-02-23T05:11:20;93074.47;;;0.60;100.00
40592;BME280;26301;42.832;23.918;2023-02-23T05:13:47;93070.88;;;0.55;100.00
40592;BME280;26301;42.832;23.918;2023-02-23T05:16:12;93073.94;;;0.50;100.00
40592;BME280;26301;42.832;23.918;2023-02-23T05:18:38;93075.63;;;0.58;100.00
40592;BME280;26301;42.832;23.918;2023-02-23T05:21:05;93063.41;;;0.38;100.00
40592;BME280;26301;42.832;23.918;2023-02-23T05:23:33;93093.56;;;0.56;100.00
40592;BME280;26301;42.832;23.918;2023-02-23T05:26:00;93088.41;;;0.64;100.00
40592;BME280;26301;42.832;23.918;2023-02-23T05:28:28;93072.81;;;0.53;100.00
40592;BME280;26301;42.832;23.918;2023-02-23T05:30:53;93082.00;;;0.54;100.00
40592;BME280;26301;42.832;23.918;2023-02-23T05:33:19;93090.59;;;0.67;100.00
40592;BME280;26301;42.832;23.918;2023-02-23T05:35:46;93102.25;;;0.77;100.00
40592;BME280;26301;42.832;23.918;2023-02-23T05:38:12;93085.50;;;0.67;100.00
40592;BME280;26301;42.832;23.918;2023-02-23T05:40:38;93097.69;;;0.87;100.00
40592;BME280;26301;42.832;23.918;2023-02-23T05:43:04;93111.00;;;0.89;100.00
40592;BME280;26301;42.832;23.918;2023-02-23T05:45:30;93110.94;;;0.97;100.00
40592;BME280;26301;42.832;23.918;2023-02-23T05:47:56;93100.75;;;0.97;100.00
40592;BME280;26301;42.832;23.918;2023-02-23T05:50:21;93127.13;;;1.11;100.00
40592;BME280;26301;42.832;23.918;2023-02-23T05:52:47;93118.34;;;1.13;100.00
40592;BME280;26301;42.832;23.918;2023-02-23T05:55:13;93113.78;;;1.24;100.00
40592;BME280;26301;42.832;23.918;2023-02-23T05:57:39;93114.38;;;1.26;100.00
40592;BME280;26301;42.832;23.918;2023-02-23T06:00:09;93113.22;;;1.28;100.00
40592;BME280;26301;42.832;23.918;2023-02-23T06:02:35;93121.19;;;1.40;100.00
40592;BME280;26301;42.832;23.918;2023-02-23T06:05:01;93128.44;;;1.58;100.00
40592;BME280;26301;42.832;23.918;2023-02-23T06:07:27;93113.16;;;1.58;100.00
40592;BME280;26301;42.832;23.918;2023-02-23T06:09:52;93125.47;;;1.76;100.00
40592;BME280;26301;42.832;23.918;2023-02-23T06:12:18;93143.91;;;1.99;100.00
40592;BME280;26301;42.832;23.918;2023-02-23T06:14:44;93125.66;;;1.96;100.00
40592;BME280;26301;42.832;23.918;2023-02-23T06:17:10;93127.66;;;2.00;100.00
40592;BME280;26301;42.832;23.918;2023-02-23T06:19:35;93147.47;;;2.26;100.00
40592;BME280;26301;42.832;23.918;2023-02-23T06:22:01;93130.31;;;2.35;100.00
40592;BME280;26301;42.832;23.918;2023-02-23T06:24:27;93125.94;;;2.57;100.00
40592;BME280;26301;42.832;23.918;2023-02-23T06:26:52;93146.69;;;2.82;100.00
40592;BME280;26301;42.832;23.918;2023-02-23T06:29:18;93130.25;;;2.91;100.00
40592;BME280;26301;42.832;23.918;2023-02-23T06:31:43;93138.19;;;3.10;100.00
40592;BME280;26301;42.832;23.918;2023-02-23T06:34:09;93138.25;;;3.23;100.00
40592;BME280;26301;42.832;23.918;2023-02-23T06:36:36;93130.44;;;3.31;100.00
40592;BME280;26301;42.832;23.918;2023-02-23T06:39:03;93130.09;;;3.41;100.00
40592;BME280;26301;42.832;23.918;2023-02-23T06:41:28;93136.66;;;3.70;100.00
40592;BME280;26301;42.832;23.918;2023-02-23T06:43:55;93144.16;;;3.92;100.00
40592;BME280;26301;42.832;23.918;2023-02-23T06:46:21;93145.56;;;4.07;100.00
40592;BME280;26301;42.832;23.918;2023-02-23T06:48:47;93125.13;;;4.27;100.00
40592;BME280;26301;42.832;23.918;2023-02-23T06:51:12;93095.81;;;4.30;100.00
40592;BME280;26301;42.832;23.918;2023-02-23T06:53:38;93138.47;;;4.76;100.00
40592;BME280;26301;42.832;23.918;2023-02-23T06:56:04;93135.88;;;4.96;100.00
40592;BME280;26301;42.832;23.918;2023-02-23T06:58:30;93128.56;;;5.13;100.00
40592;BME280;26301;42.832;23.918;2023-02-23T07:00:56;93129.69;;;5.30;100.00
40592;BME280;26301;42.832;23.918;2023-02-23T07:03:23;93133.06;;;5.62;100.00
40592;BME280;26301;42.832;23.918;2023-02-23T07:05:49;93115.91;;;5.69;100.00
40592;BME280;26301;42.832;23.918;2023-02-23T07:08:16;93120.31;;;5.94;98.77
40592;BME280;26301;42.832;23.918;2023-02-23T07:10:43;93127.63;;;6.22;94.18
40592;BME280;26301;42.832;23.918;2023-02-23T07:13:09;93105.66;;;6.33;95.55
40592;BME280;26301;42.832;23.918;2023-02-23T07:15:38;93106.06;;;6.55;95.14
40592;BME280;26301;42.832;23.918;2023-02-23T07:18:05;93123.53;;;6.90;91.72
40592;BME280;26301;42.832;23.918;2023-02-23T07:20:32;93111.72;;;7.07;88.35
40592;BME280;26301;42.832;23.918;2023-02-23T07:22:58;93103.75;;;7.27;86.55
40592;BME280;26301;42.832;23.918;2023-02-23T07:25:26;93111.31;;;7.59;84.87
40592;BME280;26301;42.832;23.918;2023-02-23T07:27:52;93093.56;;;7.69;83.89
40592;BME280;26301;42.832;23.918;2023-02-23T07:30:19;93109.91;;;8.05;82.13
40592;BME280;26301;42.832;23.918;2023-02-23T07:32:44;93095.94;;;8.12;81.10
40592;BME280;26301;42.832;23.918;2023-02-23T07:35:10;93109.56;;;8.43;79.13
40592;BME280;26301;42.832;23.918;2023-02-23T07:37:35;93106.22;;;8.66;77.19
40592;BME280;26301;42.832;23.918;2023-02-23T07:40:01;93110.91;;;8.81;76.63
40592;BME280;26301;42.832;23.918;2023-02-23T07:42:27;93114.72;;;8.90;72.99
40592;BME280;26301;42.832;23.918;2023-02-23T07:44:52;93114.72;;;9.02;72.62
40592;BME280;26301;42.832;23.918;2023-02-23T07:47:18;93116.38;;;9.08;72.46
40592;BME280;26301;42.832;23.918;2023-02-23T07:49:43;93116.69;;;9.23;73.15
40592;BME280;26301;42.832;23.918;2023-02-23T07:52:09;93109.41;;;9.32;71.88
40592;BME280;26301;42.832;23.918;2023-02-23T07:54:35;93098.31;;;9.31;70.32
40592;BME280;26301;42.832;23.918;2023-02-23T07:57:00;93113.97;;;9.42;71.11
40592;BME280;26301;42.832;23.918;2023-02-23T07:59:26;93115.22;;;9.51;70.72
40592;BME280;26301;42.832;23.918;2023-02-23T08:01:51;93097.81;;;9.46;70.33
40592;BME280;26301;42.832;23.918;2023-02-23T08:04:17;93105.22;;;9.54;70.17
40592;BME280;26301;42.832;23.918;2023-02-23T08:06:43;93101.25;;;9.64;68.85
40592;BME280;26301;42.832;23.918;2023-02-23T08:09:10;93119.69;;;9.84;68.99
40592;BME280;26301;42.832;23.918;2023-02-23T08:11:36;93124.72;;;9.91;70.65
40592;BME280;26301;42.832;23.918;2023-02-23T08:14:01;93120.00;;;9.88;71.09
40592;BME280;26301;42.832;23.918;2023-02-23T08:16:31;93123.41;;;10.05;68.50
40592;BME280;26301;42.832;23.918;2023-02-23T08:18:58;93122.88;;;10.20;67.82
40592;BME280;26301;42.832;23.918;2023-02-23T08:21:24;93109.81;;;10.10;67.43
40592;BME280;26301;42.832;23.918;2023-02-23T08:23:50;93097.47;;;10.12;65.75
40592;BME280;26301;42.832;23.918;2023-02-23T08:26:15;93077.38;;;9.85;67.21
40592;BME280;26301;42.832;23.918;2023-02-23T08:28:41;93112.69;;;10.13;66.46
40592;BME280;26301;42.832;23.918;2023-02-23T08:31:11;93113.25;;;10.15;66.02
40592;BME280;26301;42.832;23.918;2023-02-23T08:33:37;93126.31;;;10.25;65.55
40592;BME280;26301;42.832;23.918;2023-02-23T08:36:05;93127.69;;;10.28;66.12
40592;BME280;26301;42.832;23.918;2023-02-23T08:38:31;93110.84;;;10.25;66.43
40592;BME280;26301;42.832;23.918;2023-02-23T08:40:59;93128.28;;;10.47;65.55
40592;BME280;26301;42.832;23.918;2023-02-23T08:43:26;93106.03;;;10.46;64.75
40592;BME280;26301;42.832;23.918;2023-02-23T08:45:52;93118.47;;;10.49;64.47
40592;BME280;26301;42.832;23.918;2023-02-23T08:48:17;93117.47;;;10.50;65.69
40592;BME280;26301;42.832;23.918;2023-02-23T08:50:43;93112.47;;;10.60;63.38
40592;BME280;26301;42.832;23.918;2023-02-23T08:53:14;93130.69;;;10.70;65.79
40592;BME280;26301;42.832;23.918;2023-02-23T08:55:40;93118.19;;;10.62;64.22
40592;BME280;26301;42.832;23.918;2023-02-23T08:58:09;93128.47;;;10.79;65.04
40592;BME280;26301;42.832;23.918;2023-02-23T09:00:36;93119.25;;;10.83;65.29
40592;BME280;26301;42.832;23.918;2023-02-23T09:03:04;93133.56;;;10.91;64.72
40592;BME280;26301;42.832;23.918;2023-02-23T09:05:32;93138.47;;;11.09;68.11
40592;BME280;26301;42.832;23.918;2023-02-23T09:07:57;93137.03;;;11.18;66.03
40592;BME280;26301;42.832;23.918;2023-02-23T09:10:23;93137.25;;;11.34;66.24
40592;BME280;26301;42.832;23.918;2023-02-23T09:12:52;93135.94;;;11.31;62.45
40592;BME280;26301;42.832;23.918;2023-02-23T09:15:18;93126.22;;;11.21;61.80
40592;BME280;26301;42.832;23.918;2023-02-23T09:17:44;93123.53;;;11.33;64.22
40592;BME280;26301;42.832;23.918;2023-02-23T09:20:13;93143.81;;;11.41;62.05
40592;BME280;26301;42.832;23.918;2023-02-23T09:22:41;93121.88;;;11.44;62.83
40592;BME280;26301;42.832;23.918;2023-02-23T09:25:09;93130.16;;;11.46;62.95
40592;BME280;26301;42.832;23.918;2023-02-23T09:27:37;93134.50;;;11.62;61.45
40592;BME280;26301;42.832;23.918;2023-02-23T09:30:04;93128.00;;;11.60;61.99
40592;BME280;26301;42.832;23.918;2023-02-23T09:32:29;93139.38;;;11.59;60.28
40592;BME280;26301;42.832;23.918;2023-02-23T09:34:55;93131.19;;;11.67;60.15
40592;BME280;26301;42.832;23.918;2023-02-23T09:37:20;93119.47;;;11.59;60.80
40592;BME280;26301;42.832;23.918;2023-02-23T09:39:46;93135.50;;;11.83;61.44
40592;BME280;26301;42.832;23.918;2023-02-23T09:50:20;93122.81;;;12.04;59.13
40592;BME280;26301;42.832;23.918;2023-02-23T09:52:52;93114.25;;;12.03;57.86
40592;BME280;26301;42.832;23.918;2023-02-23T09:55:19;93127.31;;;12.13;61.16
40592;BME280;26301;42.832;23.918;2023-02-23T09:57:47;93116.69;;;12.15;59.28
40592;BME280;26301;42.832;23.918;2023-02-23T10:00:23;93122.81;;;12.04;59.50
40592;BME280;26301;42.832;23.918;2023-02-23T10:05:27;93134.69;;;12.27;58.50
40592;BME280;26301;42.832;23.918;2023-02-23T10:08:04;93127.75;;;12.32;56.63
40592;BME280;26301;42.832;23.918;2023-02-23T10:10:47;93134.78;;;12.37;56.73
40592;BME280;26301;42.832;23.918;2023-02-23T10:16:21;93118.75;;;12.40;58.61
40592;BME280;26301;42.832;23.918;2023-02-23T10:19:05;93109.50;;;12.49;61.04
40592;BME280;26301;42.832;23.918;2023-02-23T10:21:44;93122.84;;;12.68;59.34
40592;BME280;26301;42.832;23.918;2023-02-23T10:24:16;93113.47;;;12.62;56.34
40592;BME280;26301;42.832;23.918;2023-02-23T10:27:08;93110.34;;;12.60;56.28
40592;BME280;26301;42.832;23.918;2023-02-23T10:32:37;93122.63;;;12.70;56.63
40592;BME280;26301;42.832;23.918;2023-02-23T10:35:11;93097.13;;;12.56;55.46
40592;BME280;26301;42.832;23.918;2023-02-23T10:37:36;93119.03;;;12.76;57.92
40592;BME280;26301;42.832;23.918;2023-02-23T10:40:03;93114.13;;;12.79;55.24
40592;BME280;26301;42.832;23.918;2023-02-23T10:42:30;93109.41;;;12.71;55.93
40592;BME280;26301;42.832;23.918;2023-02-23T10:44:58;93109.69;;;12.75;55.36
40592;BME280;26301;42.832;23.918;2023-02-23T10:47:27;93105.25;;;12.70;54.74
40592;BME280;26301;42.832;23.918;2023-02-23T10:49:56;93117.50;;;12.80;54.38
40592;BME280;26301;42.832;23.918;2023-02-23T10:52:28;93110.66;;;12.64;55.41
40592;BME280;26301;42.832;23.918;2023-02-23T10:54:56;93063.03;;;12.38;56.88
40592;BME280;26301;42.832;23.918;2023-02-23T10:57:24;93113.88;;;12.81;58.45
40592;BME280;26301;42.832;23.918;2023-02-23T11:00:10;93098.75;;;12.68;56.57
40592;BME280;26301;42.832;23.918;2023-02-23T11:02:52;93090.72;;;12.69;56.26
40592;BME280;26301;42.832;23.918;2023-02-23T11:05:32;93087.34;;;12.69;54.29
40592;BME280;26301;42.832;23.918;2023-02-23T11:13:36;93101.34;;;12.68;55.93
40592;BME280;26301;42.832;23.918;2023-02-23T11:16:30;93105.81;;;12.77;53.93
40592;BME280;26301;42.832;23.918;2023-02-23T11:18:55;93098.81;;;12.73;55.07
40592;BME280;26301;42.832;23.918;2023-02-23T11:21:25;93085.25;;;12.66;54.45
40592;BME280;26301;42.832;23.918;2023-02-23T11:23:55;93084.53;;;12.70;53.70
40592;BME280;26301;42.832;23.918;2023-02-23T11:28:57;93084.94;;;12.57;55.49
40592;BME280;26301;42.832;23.918;2023-02-23T11:31:32;93092.81;;;12.67;54.15
40592;BME280;26301;42.832;23.918;2023-02-23T11:34:03;93096.38;;;12.61;55.45
40592;BME280;26301;42.832;23.918;2023-02-23T11:36:33;93087.25;;;12.53;55.73
40592;BME280;26301;42.832;23.918;2023-02-23T11:39:18;93107.56;;;12.67;55.87
40592;BME280;26301;42.832;23.918;2023-02-23T11:41:44;93093.06;;;12.71;54.21
40592;BME280;26301;42.832;23.918;2023-02-23T11:44:21;93098.09;;;12.82;54.81
40592;BME280;26301;42.832;23.918;2023-02-23T11:46:48;93091.31;;;12.81;55.70
40592;BME280;26301;42.832;23.918;2023-02-23T11:49:22;93104.09;;;12.93;53.54
40592;BME280;26301;42.832;23.918;2023-02-23T11:51:51;93101.22;;;12.90;54.35
40592;BME280;26301;42.832;23.918;2023-02-23T11:54:30;93101.22;;;12.90;56.26
40592;BME280;26301;42.832;23.918;2023-02-23T11:56:58;93078.69;;;12.90;54.85
40592;BME280;26301;42.832;23.918;2023-02-23T11:59:36;93096.91;;;13.00;54.99
40592;BME280;26301;42.832;23.918;2023-02-23T12:02:25;93096.13;;;13.00;54.15
40592;BME280;26301;42.832;23.918;2023-02-23T12:13:37;93102.78;;;12.86;54.73
40592;BME280;26301;42.832;23.918;2023-02-23T12:16:22;93099.63;;;12.84;55.51
40592;BME280;26301;42.832;23.918;2023-02-23T12:19:17;93098.63;;;12.90;53.41
40592;BME280;26301;42.832;23.918;2023-02-23T12:21:51;93097.31;;;12.82;55.18
40592;BME280;26301;42.832;23.918;2023-02-23T12:28:20;93101.41;;;12.78;54.29
40592;BME280;26301;42.832;23.918;2023-02-23T12:30:54;93081.66;;;12.72;55.98
40592;BME280;26301;42.832;23.918;2023-02-23T12:36:24;93057.75;;;12.59;54.31
40592;BME280;26301;42.832;23.918;2023-02-23T12:39:00;93107.72;;;12.92;53.97
40592;BME280;26301;42.832;23.918;2023-02-23T12:41:47;93105.69;;;12.99;53.70
40592;BME280;26301;42.832;23.918;2023-02-23T12:44:36;93109.28;;;12.88;54.00
40592;BME280;26301;42.832;23.918;2023-02-23T12:50:00;93100.06;;;12.70;53.83
40592;BME280;26301;42.832;23.918;2023-02-23T12:52:42;93106.75;;;12.61;55.43
40592;BME280;26301;42.832;23.918;2023-02-23T12:55:12;93093.97;;;12.49;55.00
40592;BME280;26301;42.832;23.918;2023-02-23T12:58:11;93106.53;;;12.68;55.73
40592;BME280;26301;42.832;23.918;2023-02-23T13:06:19;93108.22;;;12.52;55.04
40592;BME280;26301;42.832;23.918;2023-02-23T13:19:55;93116.31;;;12.28;56.52
40592;BME280;26301;42.832;23.918;2023-02-23T13:28:24;93112.81;;;12.12;57.59
40592;BME280;26301;42.832;23.918;2023-02-23T13:30:53;93113.13;;;12.21;55.92
40592;BME280;26301;42.832;23.918;2023-02-23T13:33:27;93099.22;;;12.00;57.64
40592;BME280;26301;42.832;23.918;2023-02-23T13:36:00;93101.22;;;11.93;57.26
40592;BME280;26301;42.832;23.918;2023-02-23T13:43:48;93111.19;;;11.84;57.74
40592;BME280;26301;42.832;23.918;2023-02-23T13:52:13;93108.16;;;11.65;58.12
40592;BME280;26301;42.832;23.918;2023-02-23T13:54:54;93123.78;;;11.76;58.35
40592;BME280;26301;42.832;23.918;2023-02-23T13:57:22;93121.56;;;11.62;58.58
40592;BME280;26301;42.832;23.918;2023-02-23T13:59:49;93117.66;;;11.60;58.56
40592;BME280;26301;42.832;23.918;2023-02-23T14:04:56;93136.44;;;11.50;58.72
40592;BME280;26301;42.832;23.918;2023-02-23T14:07:29;93129.13;;;11.25;59.74
40592;BME280;26301;42.832;23.918;2023-02-23T14:10:19;93139.91;;;11.39;59.58
40592;BME280;26301;42.832;23.918;2023-02-23T14:13:06;93156.69;;;11.36;59.96
40592;BME280;26301;42.832;23.918;2023-02-23T14:21:09;93155.41;;;11.17;60.48
40592;BME280;26301;42.832;23.918;2023-02-23T14:29:23;93153.22;;;10.92;60.84
40592;BME280;26301;42.832;23.918;2023-02-23T14:34:45;93143.28;;;10.67;61.78
40592;BME280;26301;42.832;23.918;2023-02-23T14:40:23;93154.50;;;10.72;61.73
40592;BME280;26301;42.832;23.918;2023-02-23T14:42:56;93162.06;;;10.79;60.78
40592;BME280;26301;42.832;23.918;2023-02-23T14:45:28;93157.22;;;10.49;61.98
40592;BME280;26301;42.832;23.918;2023-02-23T14:47:57;93142.72;;;10.31;62.56
40592;BME280;26301;42.832;23.918;2023-02-23T14:50:33;93165.25;;;10.36;63.58
40592;BME280;26301;42.832;23.918;2023-02-23T14:53:00;93141.88;;;10.14;63.85
40592;BME280;26301;42.832;23.918;2023-02-23T14:55:33;93159.34;;;10.23;63.57
40592;BME280;26301;42.832;23.918;2023-02-23T14:58:03;93121.34;;;9.90;63.47
40592;BME280;26301;42.832;23.918;2023-02-23T15:00:31;93163.44;;;10.07;63.81
40592;BME280;26301;42.832;23.918;2023-02-23T15:03:05;93162.38;;;9.92;63.99
40592;BME280;26301;42.832;23.918;2023-02-23T15:05:40;93166.09;;;9.96;64.10
40592;BME280;26301;42.832;23.918;2023-02-23T15:08:08;93160.25;;;9.89;64.87
40592;BME280;26301;42.832;23.918;2023-02-23T15:10:42;93168.66;;;9.96;64.27
40592;BME280;26301;42.832;23.918;2023-02-23T15:13:32;93172.25;;;9.95;63.99
40592;BME280;26301;42.832;23.918;2023-02-23T15:16:07;93157.97;;;9.75;64.47
40592;BME280;26301;42.832;23.918;2023-02-23T15:18:39;93176.22;;;9.74;64.96
40592;BME280;26301;42.832;23.918;2023-02-23T15:21:16;93155.63;;;9.62;65.56
40592;BME280;26301;42.832;23.918;2023-02-23T15:23:48;93161.81;;;9.49;65.44
40592;BME280;26301;42.832;23.918;2023-02-23T15:26:23;93178.97;;;9.55;65.58